sensor_id;sensor_type;location;lat;lon;timestamp;pressure;altitude;pressure_sealevel;temperature;humidity
5238;BME280;2639;49.700;7.962;2022-11-20T07:41:40;98251.91;;;3.51;100.00
5238;BME280;2639;49.700;7.962;2022-11-20T07:44:51;98250.97;;;3.59;100.00
5238;BME280;2639;49.700;7.962;2022-11-20T07:48:02;98258.72;;;3.70;100.00
5238;BME280;2639;49.700;7.962;2022-11-20T07:51:13;98265.88;;;3.74;100.00
5238;BME280;2639;49.700;7.962;2022-11-20T07:54:23;98267.66;;;3.75;100.00
5238;BME280;2639;49.700;7.962;2022-11-20T07:57:35;98263.19;;;3.72;100.00
5238;BME280;2639;49.700;7.962;2022-11-20T08:00:46;98268.25;;;3.72;100.00
5238;BME280;2639;49.700;7.962;2022-11-20T08:03:57;98274.03;;;3.80;100.00
5238;BME280;2639;49.700;7.962;2022-11-20T08:07:08;98275.97;;;3.83;100.00
5238;BME280;2639;49.700;7.962;2022-11-20T08:10:18;98281.19;;;3.84;100.00
5238;BME280;2639;49.700;7.962;2022-11-20T08:13:32;98275.78;;;3.90;100.00
5238;BME280;2639;49.700;7.962;2022-11-20T08:16:53;98276.81;;;3.92;100.00
5238;BME280;2639;49.700;7.962;2022-11-20T08:20:04;98285.34;;;3.92;100.00
5238;BME280;2639;49.700;7.962;2022-11-20T08:23:15;98289.84;;;3.86;100.00
5238;BME280;2639;49.700;7.962;2022-11-20T08:26:26;98290.91;;;3.88;100.00
5238;BME280;2639;49.700;7.962;2022-11-20T08:29:38;98290.72;;;3.95;100.00
5238;BME280;2639;49.700;7.962;2022-11-20T08:32:49;98300.09;;;3.96;100.00
5238;BME280;2639;49.700;7.962;2022-11-20T08:36:00;98299.50;;;3.99;100.00
5238;BME280;2639;49.700;7.962;2022-11-20T08:39:11;98293.81;;;4.02;100.00
5238;BME280;2639;49.700;7.962;2022-11-20T08:42:22;98294.09;;;4.05;100.00
5238;BME280;2639;49.700;7.962;2022-11-20T08:45:34;98296.19;;;4.09;100.00
5238;BME280;2639;49.700;7.962;2022-11-20T08:48:45;98306.88;;;4.15;100.00
5238;BME280;2639;49.700;7.962;2022-11-20T08:51:56;98307.44;;;4.21;100.00
5238;BME280;2639;49.700;7.962;2022-11-20T08:55:08;98300.53;;;4.29;100.00
5238;BME280;2639;49.700;7.962;2022-11-20T08:58:19;98310.22;;;4.33;100.00
5238;BME280;2639;49.700;7.962;2022-11-20T09:01:31;98301.41;;;4.29;100.00
5238;BME280;2639;49.700;7.962;2022-11-20T09:04:42;98299.63;;;4.28;100.00
5238;BME280;2639;49.700;7.962;2022-11-20T09:07:56;98296.63;;;4.32;100.00
5238;BME280;2639;49.700;7.962;2022-11-20T09:11:06;98311.00;;;4.51;100.00
5238;BME280;2639;49.700;7.962;2022-11-20T09:14:17;98301.16;;;4.64;100.00
5238;BME280;2639;49.700;7.962;2022-11-20T09:17:29;98309.03;;;4.76;100.00
5238;BME280;2639;49.700;7.962;2022-11-20T09:20:40;98311.16;;;4.90;100.00
5238;BME280;2639;49.700;7.962;2022-11-20T09:23:51;98310.31;;;5.00;100.00
5238;BME280;2639;49.700;7.962;2022-11-20T09:27:03;98310.59;;;5.03;100.00
5238;BME280;2639;49.700;7.962;2022-11-20T09:30:15;98312.19;;;5.11;100.00
5238;BME280;2639;49.700;7.962;2022-11-20T09:33:27;98313.69;;;5.09;100.00
5238;BME280;2639;49.700;7.962;2022-11-20T09:36:37;98308.13;;;5.13;100.00
5238;BME280;2639;49.700;7.962;2022-11-20T09:39:51;98303.28;;;5.16;100.00
5238;BME280;2639;49.700;7.962;2022-11-20T09:43:08;98307.28;;;5.23;100.00
5238;BME280;2639;49.700;7.962;2022-11-20T09:46:25;98309.03;;;5.24;100.00
5238;BME280;2639;49.700;7.962;2022-11-20T09:49:52;98314.97;;;5.14;100.00
5238;BME280;2639;49.700;7.962;2022-11-20T09:53:12;98312.69;;;5.17;100.00
5238;BME280;2639;49.700;7.962;2022-11-20T09:56:25;98302.09;;;5.32;100.00
5238;BME280;2639;49.700;7.962;2022-11-20T09:59:39;98294.75;;;5.45;100.00
5238;BME280;2639;49.700;7.962;2022-11-20T10:02:55;98298.78;;;5.62;100.00
5238;BME280;2639;49.700;7.962;2022-11-20T10:06:12;98296.09;;;5.70;100.00
5238;BME280;2639;49.700;7.962;2022-11-20T10:09:27;98294.34;;;5.80;100.00
5238;BME280;2639;49.700;7.962;2022-11-20T10:22:43;98270.69;;;5.91;100.00
5238;BME280;2639;49.700;7.962;2022-11-20T10:26:01;98271.50;;;6.00;100.00
5238;BME280;2639;49.700;7.962;2022-11-20T10:29:13;98267.94;;;6.08;100.00
5238;BME280;2639;49.700;7.962;2022-11-20T10:32:33;98269.84;;;6.21;100.00
5238;BME280;2639;49.700;7.962;2022-11-20T10:35:45;98262.06;;;6.40;100.00
5238;BME280;2639;49.700;7.962;2022-11-20T10:39:05;98251.63;;;6.58;100.00
5238;BME280;2639;49.700;7.962;2022-11-20T10:42:22;98252.88;;;6.73;100.00
5238;BME280;2639;49.700;7.962;2022-11-20T10:45:45;98250.38;;;6.95;100.00
5238;BME280;2639;49.700;7.962;2022-11-20T10:48:57;98250.25;;;7.04;100.00
5238;BME280;2639;49.700;7.962;2022-11-20T10:52:14;98242.31;;;7.11;100.00
5238;BME280;2639;49.700;7.962;2022-11-20T10:55:33;98233.91;;;7.56;100.00
5238;BME280;2639;49.700;7.962;2022-11-20T10:59:03;98234.19;;;8.27;100.00
5238;BME280;2639;49.700;7.962;2022-11-20T11:02:17;98232.97;;;8.67;100.00
5238;BME280;2639;49.700;7.962;2022-11-20T11:05:35;98232.50;;;9.20;100.00
5238;BME280;2639;49.700;7.962;2022-11-20T11:08:47;98222.16;;;9.67;100.00
5238;BME280;2639;49.700;7.962;2022-11-20T11:12:00;98215.31;;;9.54;100.00
5238;BME280;2639;49.700;7.962;2022-11-20T11:15:25;98211.50;;;9.61;100.00
5238;BME280;2639;49.700;7.962;2022-11-20T11:18:36;98206.16;;;9.83;100.00
5238;BME280;2639;49.700;7.962;2022-11-20T11:21:47;98204.72;;;10.00;100.00
5238;BME280;2639;49.700;7.962;2022-11-20T11:25:03;98205.72;;;10.02;99.31
5238;BME280;2639;49.700;7.962;2022-11-20T11:28:21;98200.72;;;9.78;99.48
5238;BME280;2639;49.700;7.962;2022-11-20T11:31:34;98198.41;;;9.69;100.00
5238;BME280;2639;49.700;7.962;2022-11-20T11:34:58;98199.25;;;9.57;100.00
5238;BME280;2639;49.700;7.962;2022-11-20T11:38:14;98196.16;;;9.37;100.00
5238;BME280;2639;49.700;7.962;2022-11-20T11:41:28;98193.53;;;9.24;100.00
5238;BME280;2639;49.700;7.962;2022-11-20T11:44:46;98192.66;;;9.12;100.00
5238;BME280;2639;49.700;7.962;2022-11-20T11:48:11;98187.13;;;8.94;99.76
5238;BME280;2639;49.700;7.962;2022-11-20T11:51:23;98187.56;;;8.88;100.00
5238;BME280;2639;49.700;7.962;2022-11-20T11:54:38;98185.09;;;9.01;100.00
5238;BME280;2639;49.700;7.962;2022-11-20T11:57:55;98178.72;;;9.20;100.00
5238;BME280;2639;49.700;7.962;2022-11-20T12:01:17;98174.38;;;9.19;98.67
5238;BME280;2639;49.700;7.962;2022-11-20T12:04:42;98176.41;;;9.11;98.13
5238;BME280;2639;49.700;7.962;2022-11-20T12:07:56;98178.44;;;9.03;97.20
5238;BME280;2639;49.700;7.962;2022-11-20T12:11:15;98174.19;;;8.92;99.63
5238;BME280;2639;49.700;7.962;2022-11-20T12:14:32;98160.94;;;8.86;100.00
5238;BME280;2639;49.700;7.962;2022-11-20T12:17:45;98163.75;;;8.89;100.00
5238;BME280;2639;49.700;7.962;2022-11-20T12:21:11;98164.75;;;8.79;100.00
5238;BME280;2639;49.700;7.962;2022-11-20T12:24:39;98168.63;;;8.74;100.00
5238;BME280;2639;49.700;7.962;2022-11-20T12:28:07;98161.44;;;8.69;100.00
5238;BME280;2639;49.700;7.962;2022-11-20T12:31:33;98170.44;;;8.63;100.00
5238;BME280;2639;49.700;7.962;2022-11-20T12:35:00;98164.00;;;8.57;100.00
5238;BME280;2639;49.700;7.962;2022-11-20T12:38:34;98165.09;;;8.49;100.00
5238;BME280;2639;49.700;7.962;2022-11-20T12:41:59;98173.56;;;8.59;100.00
5238;BME280;2639;49.700;7.962;2022-11-20T12:45:32;98157.41;;;8.60;99.39
5238;BME280;2639;49.700;7.962;2022-11-20T12:48:53;98155.31;;;8.67;98.34
5238;BME280;2639;49.700;7.962;2022-11-20T12:52:20;98149.63;;;8.71;98.46
5238;BME280;2639;49.700;7.962;2022-11-20T12:55:43;98146.59;;;8.88;97.49
5238;BME280;2639;49.700;7.962;2022-11-20T12:59:06;98150.81;;;8.99;97.78
5238;BME280;2639;49.700;7.962;2022-11-20T13:02:25;98143.94;;;8.98;97.16
5238;BME280;2639;49.700;7.962;2022-11-20T13:05:43;98141.69;;;9.03;97.51
5238;BME280;2639;49.700;7.962;2022-11-20T13:08:58;98132.25;;;8.90;95.38
5238;BME280;2639;49.700;7.962;2022-11-20T13:12:12;98127.41;;;9.06;95.80
5238;BME280;2639;49.700;7.962;2022-11-20T13:15:35;98124.66;;;9.03;93.51
5238;BME280;2639;49.700;7.962;2022-11-20T13:18:48;98127.25;;;8.92;93.25
5238;BME280;2639;49.700;7.962;2022-11-20T13:21:59;98114.97;;;8.99;92.08
5238;BME280;2639;49.700;7.962;2022-11-20T13:25:22;98117.38;;;9.10;92.31
5238;BME280;2639;49.700;7.962;2022-11-20T13:28:32;98117.84;;;9.04;91.51
5238;BME280;2639;49.700;7.962;2022-11-20T13:31:45;98115.63;;;9.09;90.90
5238;BME280;2639;49.700;7.962;2022-11-20T13:34:59;98101.13;;;9.09;86.88
5238;BME280;2639;49.700;7.962;2022-11-20T13:38:14;98100.81;;;9.04;86.24
5238;BME280;2639;49.700;7.962;2022-11-20T13:41:30;98101.13;;;9.09;86.05
5238;BME280;2639;49.700;7.962;2022-11-20T13:44:48;98096.47;;;9.03;86.54
5238;BME280;2639;49.700;7.962;2022-11-20T13:48:15;98091.59;;;8.95;83.58
5238;BME280;2639;49.700;7.962;2022-11-20T13:51:37;98081.19;;;8.80;84.15
5238;BME280;2639;49.700;7.962;2022-11-20T13:55:05;98083.94;;;8.83;84.71
5238;BME280;2639;49.700;7.962;2022-11-20T13:58:36;98082.28;;;8.72;84.33
5238;BME280;2639;49.700;7.962;2022-11-20T14:01:54;98074.41;;;8.69;85.45
5238;BME280;2639;49.700;7.962;2022-11-20T14:05:18;98083.66;;;8.67;86.21
5238;BME280;2639;49.700;7.962;2022-11-20T14:08:37;98077.66;;;8.54;86.52
5238;BME280;2639;49.700;7.962;2022-11-20T14:11:52;98077.88;;;8.57;87.40
5238;BME280;2639;49.700;7.962;2022-11-20T14:15:24;98075.88;;;8.41;87.95
5238;BME280;2639;49.700;7.962;2022-11-20T14:18:38;98074.63;;;8.36;88.25
5238;BME280;2639;49.700;7.962;2022-11-20T14:21:54;98071.41;;;8.39;89.58
5238;BME280;2639;49.700;7.962;2022-11-20T14:25:20;98067.19;;;8.28;88.80
5238;BME280;2639;49.700;7.962;2022-11-20T14:28:35;98061.84;;;8.25;89.61
5238;BME280;2639;49.700;7.962;2022-11-20T14:31:53;98067.63;;;8.10;89.77
5238;BME280;2639;49.700;7.962;2022-11-20T14:35:10;98064.28;;;8.11;89.80
5238;BME280;2639;49.700;7.962;2022-11-20T14:38:27;98052.28;;;8.22;90.66
5238;BME280;2639;49.700;7.962;2022-11-20T14:41:50;98047.19;;;8.22;90.38
5238;BME280;2639;49.700;7.962;2022-11-20T14:45:02;98051.16;;;8.07;90.21
5238;BME280;2639;49.700;7.962;2022-11-20T14:48:17;98043.38;;;8.05;91.26
5238;BME280;2639;49.700;7.962;2022-11-20T14:51:31;98039.50;;;8.10;92.35
5238;BME280;2639;49.700;7.962;2022-11-20T14:54:46;98043.63;;;8.08;92.22
5238;BME280;2639;49.700;7.962;2022-11-20T14:58:01;98036.50;;;8.04;91.66
5238;BME280;2639;49.700;7.962;2022-11-20T15:01:26;98032.19;;;8.03;93.12
5238;BME280;2639;49.700;7.962;2022-11-20T15:04:47;98028.28;;;7.96;94.00
5238;BME280;2639;49.700;7.962;2022-11-20T15:08:07;98036.69;;;7.84;93.43
5238;BME280;2639;49.700;7.962;2022-11-20T15:11:22;98028.91;;;7.70;94.97
5238;BME280;2639;49.700;7.962;2022-11-20T15:14:39;98024.69;;;7.59;93.21
5238;BME280;2639;49.700;7.962;2022-11-20T15:17:53;98022.88;;;7.58;94.45
5238;BME280;2639;49.700;7.962;2022-11-20T15:21:11;98022.22;;;7.61;95.09
5238;BME280;2639;49.700;7.962;2022-11-20T15:24:25;98027.13;;;7.57;95.83
5238;BME280;2639;49.700;7.962;2022-11-20T15:27:39;98022.69;;;7.55;94.48
5238;BME280;2639;49.700;7.962;2022-11-20T15:30:54;98020.22;;;7.56;95.22
5238;BME280;2639;49.700;7.962;2022-11-20T15:34:10;98029.31;;;7.53;95.87
5238;BME280;2639;49.700;7.962;2022-11-20T15:37:26;98027.78;;;7.55;95.67
5238;BME280;2639;49.700;7.962;2022-11-20T15:40:40;98024.97;;;7.52;95.69
5238;BME280;2639;49.700;7.962;2022-11-20T15:43:54;98021.66;;;7.53;95.86
5238;BME280;2639;49.700;7.962;2022-11-20T15:47:10;98023.66;;;7.45;97.47
5238;BME280;2639;49.700;7.962;2022-11-20T15:50:27;98018.94;;;7.28;99.15
5238;BME280;2639;49.700;7.962;2022-11-20T15:53:44;98012.16;;;7.28;99.93
5238;BME280;2639;49.700;7.962;2022-11-20T15:56:58;98009.06;;;7.32;99.73
5238;BME280;2639;49.700;7.962;2022-11-20T16:00:16;98008.31;;;7.33;99.82
5238;BME280;2639;49.700;7.962;2022-11-20T16:03:35;98004.13;;;7.12;100.00
5238;BME280;2639;49.700;7.962;2022-11-20T16:06:48;97995.91;;;7.16;100.00
5238;BME280;2639;49.700;7.962;2022-11-20T16:10:03;97998.25;;;7.13;100.00
5238;BME280;2639;49.700;7.962;2022-11-20T16:13:17;97990.69;;;7.14;100.00
5238;BME280;2639;49.700;7.962;2022-11-20T16:16:40;97985.94;;;7.19;100.00
5238;BME280;2639;49.700;7.962;2022-11-20T16:19:52;97974.16;;;7.09;100.00
5238;BME280;2639;49.700;7.962;2022-11-20T16:23:04;97979.38;;;7.11;100.00
5238;BME280;2639;49.700;7.962;2022-11-20T16:26:17;97972.56;;;7.00;100.00
5238;BME280;2639;49.700;7.962;2022-11-20T16:29:30;97974.34;;;7.01;100.00
5238;BME280;2639;49.700;7.962;2022-11-20T16:32:41;97972.38;;;7.08;100.00
5238;BME280;2639;49.700;7.962;2022-11-20T16:35:52;97963.06;;;7.09;100.00
5238;BME280;2639;49.700;7.962;2022-11-20T16:39:03;97962.13;;;6.97;100.00
5238;BME280;2639;49.700;7.962;2022-11-20T16:42:16;97954.16;;;7.04;100.00
5238;BME280;2639;49.700;7.962;2022-11-20T16:45:27;97949.06;;;7.04;100.00
5238;BME280;2639;49.700;7.962;2022-11-20T16:48:42;97945.56;;;6.91;100.00
5238;BME280;2639;49.700;7.962;2022-11-20T16:51:53;97937.91;;;6.91;100.00
5238;BME280;2639;49.700;7.962;2022-11-20T16:55:05;97937.53;;;6.75;100.00
5238;BME280;2639;49.700;7.962;2022-11-20T16:58:18;97933.44;;;6.77;100.00
5238;BME280;2639;49.700;7.962;2022-11-20T17:01:29;97934.22;;;6.76;100.00
5238;BME280;2639;49.700;7.962;2022-11-20T17:04:41;97926.56;;;6.76;100.00
5238;BME280;2639;49.700;7.962;2022-11-20T17:07:52;97925.03;;;6.78;100.00
5238;BME280;2639;49.700;7.962;2022-11-20T17:11:05;97920.63;;;6.87;100.00
5238;BME280;2639;49.700;7.962;2022-11-20T17:14:17;97915.25;;;6.84;100.00
5238;BME280;2639;49.700;7.962;2022-11-20T17:17:29;97913.97;;;6.89;100.00
5238;BME280;2639;49.700;7.962;2022-11-20T17:20:41;97910.78;;;6.70;100.00
5238;BME280;2639;49.700;7.962;2022-11-20T17:23:52;97901.38;;;6.69;100.00
5238;BME280;2639;49.700;7.962;2022-11-20T17:27:03;97906.88;;;6.63;100.00
5238;BME280;2639;49.700;7.962;2022-11-20T17:30:16;97901.69;;;6.62;100.00
5238;BME280;2639;49.700;7.962;2022-11-20T17:33:28;97906.31;;;6.56;100.00
5238;BME280;2639;49.700;7.962;2022-11-20T17:36:40;97898.66;;;6.56;100.00
5238;BME280;2639;49.700;7.962;2022-11-20T17:39:54;97898.03;;;6.70;100.00
5238;BME280;2639;49.700;7.962;2022-11-20T17:43:05;97901.38;;;6.69;100.00
5238;BME280;2639;49.700;7.962;2022-11-20T17:46:20;97902.44;;;6.61;100.00
5238;BME280;2639;49.700;7.962;2022-11-20T17:49:31;97899.88;;;6.61;100.00
5238;BME280;2639;49.700;7.962;2022-11-20T17:52:43;97889.84;;;6.52;100.00
5238;BME280;2639;49.700;7.962;2022-11-20T17:55:55;97883.19;;;6.42;100.00
5238;BME280;2639;49.700;7.962;2022-11-20T17:59:17;97886.97;;;6.47;100.00
5238;BME280;2639;49.700;7.962;2022-11-20T18:02:30;97883.19;;;6.42;100.00
5238;BME280;2639;49.700;7.962;2022-11-20T18:05:41;97879.41;;;6.37;100.00
5238;BME280;2639;49.700;7.962;2022-11-20T18:08:52;97876.84;;;6.37;100.00
5238;BME280;2639;49.700;7.962;2022-11-20T18:12:04;97876.66;;;6.24;100.00
5238;BME280;2639;49.700;7.962;2022-11-20T18:15:15;97881.31;;;6.18;100.00
5238;BME280;2639;49.700;7.962;2022-11-20T18:18:28;97883.97;;;6.19;100.00
5238;BME280;2639;49.700;7.962;2022-11-20T18:21:39;97882.84;;;6.16;100.00
5238;BME280;2639;49.700;7.962;2022-11-20T18:24:50;97876.25;;;6.07;100.00
5238;BME280;2639;49.700;7.962;2022-11-20T18:28:01;97868.59;;;6.07;100.00
5238;BME280;2639;49.700;7.962;2022-11-20T18:31:13;97870.69;;;6.01;100.00
5238;BME280;2639;49.700;7.962;2022-11-20T18:34:26;97873.25;;;6.01;100.00
5238;BME280;2639;49.700;7.962;2022-11-20T18:37:37;97863.06;;;5.91;100.00
5238;BME280;2639;49.700;7.962;2022-11-20T18:40:49;97860.06;;;5.85;100.00
5238;BME280;2639;49.700;7.962;2022-11-20T18:44:02;97857.13;;;5.80;100.00
5238;BME280;2639;49.700;7.962;2022-11-20T18:47:25;97856.50;;;5.83;100.00
5238;BME280;2639;49.700;7.962;2022-11-20T18:50:40;97853.38;;;5.87;100.00
5238;BME280;2639;49.700;7.962;2022-11-20T18:53:51;97861.59;;;5.83;100.00
5238;BME280;2639;49.700;7.962;2022-11-20T18:57:06;97849.84;;;5.85;100.00
5238;BME280;2639;49.700;7.962;2022-11-20T19:00:19;97846.31;;;5.83;100.00
5238;BME280;2639;49.700;7.962;2022-11-20T19:03:30;97850.97;;;5.88;100.00
5238;BME280;2639;49.700;7.962;2022-11-20T19:06:44;97844.03;;;5.76;100.00
5238;BME280;2639;49.700;7.962;2022-11-20T19:09:57;97836.16;;;5.73;100.00
5238;BME280;2639;49.700;7.962;2022-11-20T19:13:12;97846.47;;;5.74;100.00
5238;BME280;2639;49.700;7.962;2022-11-20T19:16:23;97833.84;;;5.76;100.00
5238;BME280;2639;49.700;7.962;2022-11-20T19:19:36;97839.66;;;5.85;100.00
5238;BME280;2639;49.700;7.962;2022-11-20T19:22:50;97828.81;;;5.87;100.00
5238;BME280;2639;49.700;7.962;2022-11-20T19:26:02;97832.25;;;5.88;100.00
5238;BME280;2639;49.700;7.962;2022-11-20T19:29:15;97839.13;;;5.89;100.00
5238;BME280;2639;49.700;7.962;2022-11-20T19:32:26;97836.69;;;5.90;100.00
5238;BME280;2639;49.700;7.962;2022-11-20T19:35:40;97833.75;;;5.96;100.00
5238;BME280;2639;49.700;7.962;2022-11-20T19:38:52;97843.94;;;5.96;100.00
5238;BME280;2639;49.700;7.962;2022-11-20T19:42:04;97840.88;;;6.00;100.00
5238;BME280;2639;49.700;7.962;2022-11-20T19:45:15;97836.22;;;5.95;100.00
5238;BME280;2639;49.700;7.962;2022-11-20T19:48:29;97831.56;;;6.01;100.00
5238;BME280;2639;49.700;7.962;2022-11-20T19:51:44;97820.03;;;5.94;100.00
5238;BME280;2639;49.700;7.962;2022-11-20T19:54:58;97817.50;;;5.84;100.00
5238;BME280;2639;49.700;7.962;2022-11-20T19:58:09;97807.13;;;5.70;100.00
5238;BME280;2639;49.700;7.962;2022-11-20T20:01:22;97819.84;;;5.70;100.00
5238;BME280;2639;49.700;7.962;2022-11-20T20:04:34;97823.66;;;5.76;100.00
5238;BME280;2639;49.700;7.962;2022-11-20T20:07:45;97820.19;;;5.85;100.00
5238;BME280;2639;49.700;7.962;2022-11-20T20:10:58;97819.66;;;5.89;100.00
5238;BME280;2639;49.700;7.962;2022-11-20T20:14:12;97818.59;;;5.98;100.00
5238;BME280;2639;49.700;7.962;2022-11-20T20:17:24;97816.53;;;6.04;100.00
5238;BME280;2639;49.700;7.962;2022-11-20T20:20:35;97810.53;;;6.03;100.00
5238;BME280;2639;49.700;7.962;2022-11-20T20:23:50;97819.88;;;6.15;100.00
5238;BME280;2639;49.700;7.962;2022-11-20T20:27:03;97831.09;;;6.17;100.00
5238;BME280;2639;49.700;7.962;2022-11-20T20:30:14;97832.94;;;6.07;100.00
5238;BME280;2639;49.700;7.962;2022-11-20T20:33:26;97821.81;;;5.95;100.00
5238;BME280;2639;49.700;7.962;2022-11-20T20:36:37;97823.06;;;5.90;100.00
5238;BME280;2639;49.700;7.962;2022-11-20T20:39:48;97819.53;;;5.88;100.00
5238;BME280;2639;49.700;7.962;2022-11-20T20:43:00;97822.59;;;5.94;100.00
